This is the latest recevied weather packets stored in our database for station/object OE3EMC-13. If no packets are shown the sender has not sent any weather packets the latest 10 day(s).
| Time | Temp. | Humidity | Pressure | Rain* | Wind** | Luminosity | Snow |
|---|---|---|---|---|---|---|---|
| 1777265590 | -1.11° C | 77% | 1100 hPa | 0 mm | - | - | - |
| 1777264990 | -1.11° C | 77% | 1100 hPa | 0 mm | - | - | - |
| 1777264391 | -1.11° C | 76% | 1100 hPa | 0 mm | - | - | - |
| 1777263791 | -1.11° C | 76% | 1100 hPa | 0 mm | - | - | - |
| 1777263191 | -1.11° C | 75% | 1100 hPa | 0 mm | - | - | - |
| 1777262591 | -1.11° C | 75% | 1100 hPa | 0 mm | - | - | - |
| 1777261989 | 0° C | 72% | 1100 hPa | 0 mm | - | - | - |
| 1777261395 | 0° C | 72% | 1100 hPa | 0 mm | - | - | - |
| 1777260796 | 0.56° C | 73% | 1100 hPa | 0 mm | - | - | - |
| 1777260194 | 0.56° C | 73% | 1100 hPa | 0 mm | - | - | - |
| 1777259595 | -0.56° C | 75% | 1100 hPa | 0 mm | - | - | - |
| 1777258994 | -0.56° C | 75% | 1100 hPa | 0 mm | - | - | - |
| 1777258394 | -1.11° C | 78% | 1100 hPa | 0 mm | - | - | - |
| 1777257795 | -1.11° C | 78% | 1100 hPa | 0 mm | - | - | - |
| 1777257193 | -1.67° C | 77% | 1100 hPa | 0 mm | - | - | - |
| 1777256594 | -1.67° C | 77% | 1100 hPa | 0 mm | - | - | - |
| 1777255994 | -1.11° C | 77% | 1100 hPa | 0 mm | - | - | - |
| 1777255393 | -1.11° C | 77% | 1100 hPa | 0 mm | - | - | - |
| 1777254793 | -1.11° C | 77% | 1100 hPa | 0 mm | - | - | - |
| 1777254192 | -1.11° C | 77% | 1100 hPa | 0 mm | - | - | - |
| 1777253592 | -0.56° C | 76% | 1100 hPa | 0 mm | - | - | - |
| 1777252992 | -0.56° C | 76% | 1100 hPa | 0 mm | - | - | - |
| 1777252392 | -0.56° C | 75% | 1100 hPa | 0 mm | - | - | - |
| 1777251793 | -0.56° C | 75% | 1100 hPa | 0 mm | - | - | - |
| 1777251192 | 0° C | 75% | 1100 hPa | 0 mm | - | - | - |
* Rain latest hour (hover to see other rain measurements)
** Current wind speed in m/s (hover to see current wind gust speed)